Time;durP1;ratioP1;P1;durP2;ratioP2;P2;SDS_P1;SDS_P2;PMS_P1;PMS_P2;Temp;Humidity;BMP_temperature;BMP_pressure;BME280_temperature;BME280_humidity;BME280_pressure;Samples;Min_cycle;Max_cycle;Signal;HPM_P1;HPM_P2
2021/12/19 00:04:00;;;;;;;36.75;17.45;;;;;;;23.86;37.08;98177.84;4953640;28;20025;-28
2021/12/19 00:09:10;;;;;;;39.90;17.63;;;;;;;23.87;36.89;98172.56;4989660;28;20095;-27
2021/12/19 00:11:35;;;;;;;33.30;16.50;;;;;;;23.88;36.88;98171.66;4982851;28;20063;-32
2021/12/19 00:14:01;;;;;;;35.20;17.20;;;;;;;23.89;36.93;98162.06;4965524;28;20034;-27
2021/12/19 00:16:26;;;;;;;29.58;16.45;;;;;;;23.89;36.88;98162.06;4964800;28;20034;-30
2021/12/19 00:18:52;;;;;;;36.65;17.88;;;;;;;23.88;37.04;98161.19;4956168;28;20125;-26
2021/12/19 00:21:18;;;;;;;33.25;16.40;;;;;;;23.90;36.93;98166.41;4966982;28;20044;-30
2021/12/19 00:23:44;;;;;;;35.42;16.55;;;;;;;23.91;37.04;98170.75;4985641;28;20026;-30
2021/12/19 00:26:10;;;;;;;32.08;15.77;;;;;;;23.90;36.97;98163.78;4988578;28;20785;-30
2021/12/19 00:28:36;;;;;;;30.67;15.50;;;;;;;23.91;36.91;98169.91;4973403;28;20030;-28
2021/12/19 00:31:02;;;;;;;32.88;16.17;;;;;;;23.91;36.98;98149.78;4985142;28;20080;-26
2021/12/19 00:33:27;;;;;;;34.35;16.63;;;;;;;23.93;36.97;98147.13;4989842;28;20640;-30
2021/12/19 00:35:53;;;;;;;32.67;16.30;;;;;;;23.93;36.73;98155.88;4986826;28;20037;-30
2021/12/19 00:38:18;;;;;;;32.42;16.10;;;;;;;23.92;36.83;98146.31;4987448;28;20040;-29
2021/12/19 00:40:43;;;;;;;29.48;15.93;;;;;;;23.94;36.82;98154.13;4986855;28;20042;-33
2021/12/19 00:43:21;;;;;;;31.90;16.33;;;;;;;23.94;36.64;98157.59;4988100;28;20033;-31
2021/12/19 00:45:47;;;;;;;32.03;15.88;;;;;;;23.95;36.87;98161.06;4973407;28;20616;-27
2021/12/19 00:48:13;;;;;;;30.60;14.85;;;;;;;23.94;36.71;98154.97;4986891;28;20040;-28
2021/12/19 00:50:39;;;;;;;30.92;15.13;;;;;;;23.95;36.62;98156.69;4988272;28;20681;-28
2021/12/19 00:53:04;;;;;;;30.33;14.95;;;;;;;23.96;36.86;98141.84;4985903;28;20109;-31
2021/12/19 00:55:30;;;;;;;29.02;14.77;;;;;;;23.95;36.82;98133.13;4987660;28;20029;-29
2021/12/19 00:57:56;;;;;;;30.42;15.27;;;;;;;23.96;36.74;98132.25;4956679;28;20061;-29
2021/12/19 01:00:23;;;;;;;29.55;14.55;;;;;;;23.96;36.61;98132.25;4990148;28;20038;-30
2021/12/19 01:02:53;;;;;;;27.13;14.10;;;;;;;23.98;36.52;98129.56;4990634;28;20065;-29
2021/12/19 01:05:19;;;;;;;27.63;14.15;;;;;;;23.97;36.71;98123.47;4992256;28;20034;-28
2021/12/19 01:07:45;;;;;;;26.30;13.90;;;;;;;23.97;36.80;98120.88;4989923;28;20030;-27
2021/12/19 01:10:10;;;;;;;33.17;14.48;;;;;;;23.99;36.78;98113.81;4971563;28;20443;-29
2021/12/19 01:12:38;;;;;;;29.20;14.23;;;;;;;23.98;36.68;98113.84;4988531;28;20033;-29
2021/12/19 01:15:05;;;;;;;23.05;13.38;;;;;;;23.97;36.69;98107.78;4986622;28;20034;-31
2021/12/19 01:17:30;;;;;;;27.08;13.75;;;;;;;23.99;36.52;98105.97;4988775;28;20219;-30
2021/12/19 01:19:56;;;;;;;25.10;13.88;;;;;;;23.98;36.61;98109.47;4991808;28;20041;-29
2021/12/19 01:22:21;;;;;;;28.55;14.10;;;;;;;23.98;36.64;98109.47;4987824;28;20711;-30
2021/12/19 01:24:47;;;;;;;25.77;13.38;;;;;;;23.99;36.53;98108.56;4991974;28;20023;-28
2021/12/19 01:27:12;;;;;;;28.13;13.55;;;;;;;23.98;36.54;98104.25;4956251;28;20603;-30
2021/12/19 01:29:37;;;;;;;27.73;14.43;;;;;;;23.98;37.02;98109.47;4955850;28;20022;-28
2021/12/19 01:32:03;;;;;;;25.25;13.35;;;;;;;23.99;36.66;98111.19;4991410;28;20030;-29
2021/12/19 01:34:29;;;;;;;24.38;13.25;;;;;;;23.98;36.48;98104.25;4954712;28;20042;-28
2021/12/19 01:36:54;;;;;;;25.23;13.32;;;;;;;24.00;36.72;98117.31;4988325;28;20067;-28
2021/12/19 01:39:19;;;;;;;24.88;13.05;;;;;;;23.99;36.69;98111.19;4990008;28;20520;-29
2021/12/19 01:41:50;;;;;;;22.73;12.85;;;;;;;23.98;36.71;98104.25;4974121;28;20070;-29
2021/12/19 01:44:15;;;;;;;27.55;12.90;;;;;;;23.99;36.49;98103.34;4989284;28;20030;-27
2021/12/19 01:46:42;;;;;;;26.58;12.95;;;;;;;24.00;36.59;98106.84;4991673;28;20786;-26
2021/12/19 01:49:08;;;;;;;22.90;12.75;;;;;;;23.97;36.74;98102.53;4989377;28;20112;-29
2021/12/19 01:51:33;;;;;;;24.88;13.93;;;;;;;24.00;36.66;98106.84;4973763;28;20580;-30
2021/12/19 01:53:58;;;;;;;24.30;12.55;;;;;;;23.99;36.73;98105.13;4991111;28;20127;-32
2021/12/19 01:56:24;;;;;;;21.13;12.15;;;;;;;24.00;36.65;98107.72;4972530;28;20658;-28
2021/12/19 01:58:49;;;;;;;22.65;12.48;;;;;;;23.98;36.42;98109.47;4956240;28;20022;-31
2021/12/19 02:01:15;;;;;;;22.10;12.60;;;;;;;23.93;36.58;98106.13;4988451;28;20026;-28
2021/12/19 02:03:40;;;;;;;26.38;12.45;;;;;;;23.99;36.62;98116.44;4972062;28;20471;-29
2021/12/19 02:06:06;;;;;;;30.40;12.52;;;;;;;24.00;36.43;98115.56;4990257;28;20033;-30
2021/12/19 02:08:31;;;;;;;21.40;11.57;;;;;;;23.98;36.50;98114.72;4987489;28;20041;-28
2021/12/19 02:10:56;;;;;;;21.23;11.93;;;;;;;23.98;36.46;98109.47;4986564;28;20575;-27
2021/12/19 02:13:22;;;;;;;25.25;12.13;;;;;;;23.98;36.39;98114.72;4972291;28;20096;-28
2021/12/19 02:15:47;;;;;;;21.85;12.68;;;;;;;23.99;36.52;98116.44;4971282;28;20037;-28
2021/12/19 02:18:16;;;;;;;19.17;11.38;;;;;;;24.00;36.52;98112.94;4984018;28;20037;-28
2021/12/19 02:20:43;;;;;;;22.00;11.32;;;;;;;23.99;36.57;98105.97;4971257;28;20034;-26
2021/12/19 02:23:10;;;;;;;18.98;11.32;;;;;;;23.97;36.50;98113.00;4973680;28;20030;-28
2021/12/19 02:25:35;;;;;;;20.63;11.80;;;;;;;23.99;36.52;98111.19;4990402;28;20045;-30
2021/12/19 02:28:01;;;;;;;21.05;10.93;;;;;;;23.98;36.46;98112.09;4988421;28;20029;-27
2021/12/19 02:30:27;;;;;;;21.45;12.55;;;;;;;23.99;36.38;98111.19;4957758;28;20500;-27
2021/12/19 02:32:52;;;;;;;22.90;11.18;;;;;;;24.00;36.34;98107.72;4957550;28;20492;-30
2021/12/19 02:35:23;;;;;;;24.42;11.27;;;;;;;24.00;36.55;98107.72;4975389;28;20056;-27
2021/12/19 02:48:16;;;;;;;17.65;10.55;;;;;;;23.98;36.39;98088.53;4988726;28;20131;-28
2021/12/19 02:50:50;;;;;;;24.15;11.23;;;;;;;23.99;36.49;98079.78;4988012;28;20968;-28
2021/12/19 02:53:26;;;;;;;19.33;10.57;;;;;;;23.98;36.47;98066.72;4990253;28;20405;-29
2021/12/19 02:55:52;;;;;;;19.02;10.60;;;;;;;23.98;36.43;98066.72;4990872;28;20022;-27
2021/12/19 02:58:17;;;;;;;18.25;11.02;;;;;;;23.98;36.41;98064.97;4989353;28;20668;-30
2021/12/19 03:00:42;;;;;;;17.73;10.50;;;;;;;23.98;36.50;98067.59;4988124;28;20030;-30
2021/12/19 03:03:08;;;;;;;19.95;11.20;;;;;;;23.98;36.40;98078.06;4987306;28;20158;-29
2021/12/19 03:05:33;;;;;;;18.38;10.68;;;;;;;23.97;36.56;98081.59;4988836;28;20030;-27
2021/12/19 03:08:01;;;;;;;18.92;10.05;;;;;;;23.98;36.55;98078.06;4988068;28;20026;-31
2021/12/19 03:18:26;;;;;;;16.35;11.13;;;;;;;23.98;36.24;98078.06;4971562;28;20044;-31
2021/12/19 03:20:52;;;;;;;18.90;10.20;;;;;;;23.97;36.45;98073.72;4983598;28;20034;-28
2021/12/19 03:23:17;;;;;;;16.83;9.73;;;;;;;23.97;36.25;98065.88;4980159;28;20030;-29
2021/12/19 03:25:43;;;;;;;16.35;9.60;;;;;;;23.97;36.29;98063.25;4981189;28;20425;-29
2021/12/19 03:28:09;;;;;;;15.38;8.88;;;;;;;23.95;36.09;98057.19;4964997;28;20643;-29
2021/12/19 03:30:35;;;;;;;17.23;9.73;;;;;;;23.96;36.20;98053.69;4982967;28;20911;-28
2021/12/19 03:33:00;;;;;;;18.33;10.07;;;;;;;23.96;36.33;98051.06;4965798;28;20030;-30
2021/12/19 03:35:27;;;;;;;18.77;10.30;;;;;;;23.97;36.24;98044.06;4985950;28;20121;-31
2021/12/19 03:37:53;;;;;;;15.35;9.57;;;;;;;23.96;36.17;98051.06;4966127;28;20036;-28
2021/12/19 03:40:23;;;;;;;15.18;9.20;;;;;;;23.96;36.29;98056.31;4983954;28;20030;-31
2021/12/19 03:42:50;;;;;;;19.33;9.30;;;;;;;23.96;36.24;98052.81;4982185;28;20656;-27
2021/12/19 03:45:17;;;;;;;15.02;8.93;;;;;;;23.95;36.18;98049.34;4986017;28;20052;-27
2021/12/19 03:47:43;;;;;;;15.65;9.13;;;;;;;23.97;35.91;98052.78;4983374;28;20119;-32
2021/12/19 03:50:09;;;;;;;18.58;9.13;;;;;;;23.97;36.25;98044.94;4951706;28;20026;-29
2021/12/19 03:52:35;;;;;;;17.15;9.32;;;;;;;23.96;36.18;98043.22;4981733;28;20041;-28
2021/12/19 03:55:00;;;;;;;17.42;9.45;;;;;;;23.98;36.33;98033.56;4983201;28;20030;-29
2021/12/19 03:57:25;;;;;;;15.85;8.52;;;;;;;23.97;35.95;98034.47;4982287;28;20061;-30
2021/12/19 03:59:51;;;;;;;14.55;9.25;;;;;;;23.98;36.35;98024.81;4980185;28;20178;-29
2021/12/19 04:02:26;;;;;;;15.73;8.77;;;;;;;23.97;35.93;98024.00;4981016;28;20593;-28
2021/12/19 04:04:52;;;;;;;14.25;8.48;;;;;;;23.98;36.04;98020.47;4983565;28;20113;-28
2021/12/19 04:07:17;;;;;;;17.73;9.68;;;;;;;23.98;36.23;98016.97;4970937;28;20033;-28
2021/12/19 04:09:43;;;;;;;16.02;8.70;;;;;;;23.98;36.20;98023.06;4985687;28;20033;-31
2021/12/19 04:12:09;;;;;;;13.65;8.48;;;;;;;23.97;35.99;98031.84;4980833;28;20030;-30
2021/12/19 04:14:34;;;;;;;14.70;8.40;;;;;;;23.97;35.92;98024.00;4981763;28;20022;-30
2021/12/19 04:17:00;;;;;;;16.65;8.40;;;;;;;23.98;36.13;98024.81;4984309;28;20033;-29
2021/12/19 04:19:26;;;;;;;14.70;8.40;;;;;;;23.98;36.20;98025.69;4968550;28;20030;-29
2021/12/19 04:21:51;;;;;;;13.82;8.57;;;;;;;23.98;35.98;98025.69;4983368;28;20022;-30
2021/12/19 04:24:17;;;;;;;15.93;8.23;;;;;;;23.97;36.11;98018.75;4973033;28;20167;-28
2021/12/19 04:26:42;;;;;;;13.30;8.05;;;;;;;23.97;36.16;98008.28;4987808;28;20453;-32
2021/12/19 04:29:08;;;;;;;11.85;7.47;;;;;;;23.98;36.18;98009.13;4982176;28;20034;-29
2021/12/19 04:31:33;;;;;;;15.45;8.55;;;;;;;23.98;36.17;98012.59;4987553;28;20030;-28
2021/12/19 04:33:58;;;;;;;13.80;8.60;;;;;;;23.97;36.01;98003.03;4987400;28;20045;-28
2021/12/19 04:36:31;;;;;;;14.77;8.27;;;;;;;23.97;35.93;98007.41;4982200;28;20041;-30
2021/12/19 04:54:47;;;;;;;14.20;7.63;;;;;;;23.97;35.89;97997.81;4966268;28;20030;-32
2021/12/19 04:59:57;;;;;;;12.88;7.60;;;;;;;23.96;35.92;97985.63;4982311;28;20508;-30
2021/12/19 05:15:48;;;;;;;12.20;7.28;;;;;;;23.97;35.90;98002.16;4981971;28;20085;-30
2021/12/19 05:18:14;;;;;;;11.52;7.53;;;;;;;23.97;35.73;97996.94;4963458;28;20872;-31
2021/12/19 05:20:40;;;;;;;15.88;7.97;;;;;;;23.97;35.97;98007.41;4986219;28;20045;-30
2021/12/19 05:23:18;;;;;;;9.77;6.57;;;;;;;23.97;35.73;98003.03;4982269;28;20044;-30
2021/12/19 05:25:44;;;;;;;14.77;6.88;;;;;;;23.97;35.83;98008.28;4967263;28;20030;-29
2021/12/19 05:28:09;;;;;;;11.95;7.35;;;;;;;23.97;35.96;97996.94;4988469;28;20374;-30
2021/12/19 05:30:35;;;;;;;12.88;6.82;;;;;;;23.97;35.65;98003.03;4953365;28;20401;-27
2021/12/19 05:33:02;;;;;;;12.13;6.95;;;;;;;23.97;35.91;98003.03;4986814;28;20486;-30
2021/12/19 05:44:09;;;;;;;12.13;6.78;;;;;;;23.98;35.70;98009.13;4966292;28;20037;-28
2021/12/19 05:46:24;;;;;;;12.75;6.68;;;;;;;23.98;35.82;97996.03;4991814;28;20045;-28
2021/12/19 05:48:49;;;;;;;10.88;6.68;;;;;;;23.98;35.72;97994.28;4989272;28;20034;-27
2021/12/19 05:51:14;;;;;;;14.70;7.00;;;;;;;23.98;35.62;97996.91;4987444;28;20290;-30
2021/12/19 05:53:40;;;;;;;10.43;6.47;;;;;;;24.00;35.63;97997.72;4989115;28;20034;-30
2021/12/19 05:56:05;;;;;;;10.82;6.45;;;;;;;24.00;35.63;97986.38;4988671;28;20047;-29
2021/12/19 05:58:31;;;;;;;9.45;6.22;;;;;;;24.00;35.63;97982.03;4990294;28;20053;-27
2021/12/19 06:00:56;;;;;;;12.85;6.72;;;;;;;24.00;35.81;97979.41;4991694;28;20026;-37
2021/12/19 06:03:21;;;;;;;10.50;6.32;;;;;;;24.01;35.51;97978.50;4987984;28;20097;-31
2021/12/19 06:05:47;;;;;;;10.55;6.43;;;;;;;24.04;35.82;97976.69;4988383;28;20378;-29
2021/12/19 06:08:12;;;;;;;11.07;6.57;;;;;;;24.04;35.57;97981.91;4990442;28;20062;-34
2021/12/19 06:10:38;;;;;;;13.02;6.60;;;;;;;24.04;35.70;97972.31;4988663;28;20034;-28
2021/12/19 06:13:03;;;;;;;11.90;6.43;;;;;;;24.04;35.62;97969.69;4985495;28;20069;-28
2021/12/19 06:15:28;;;;;;;11.07;6.40;;;;;;;24.05;35.47;97970.53;4989843;28;20037;-29
2021/12/19 06:17:54;;;;;;;8.38;5.70;;;;;;;24.06;35.47;97970.50;4975817;28;20082;-30
2021/12/19 06:20:20;;;;;;;12.77;6.45;;;;;;;24.06;35.68;97964.41;4989383;28;20030;-29
2021/12/19 06:22:45;;;;;;;9.30;6.10;;;;;;;24.07;35.50;97966.13;4989150;28;20029;-29
2021/12/19 06:25:10;;;;;;;9.95;6.28;;;;;;;24.07;35.40;97960.91;4989804;28;20488;-32
2021/12/19 06:27:36;;;;;;;9.95;5.85;;;;;;;24.09;35.42;97948.59;4990320;28;20034;-29
2021/12/19 06:30:02;;;;;;;9.85;6.10;;;;;;;24.05;35.52;97942.59;4984916;28;20041;-29
2021/12/19 06:32:27;;;;;;;9.35;5.80;;;;;;;24.09;35.43;97949.47;4989296;28;20519;-29
2021/12/19 06:34:53;;;;;;;10.98;6.20;;;;;;;24.09;35.49;97943.38;4990779;28;20034;-30
2021/12/19 06:37:18;;;;;;;9.05;5.85;;;;;;;24.10;35.56;97945.13;4986999;28;20031;-31
2021/12/19 06:39:44;;;;;;;8.90;5.72;;;;;;;24.09;35.26;97941.63;4989548;28;20044;-29
2021/12/19 06:42:09;;;;;;;8.00;6.10;;;;;;;24.11;35.44;97947.69;4971274;28;20033;-31
2021/12/19 06:44:35;;;;;;;9.60;6.15;;;;;;;24.12;35.11;97943.31;4989206;28;20045;-27
2021/12/19 06:47:00;;;;;;;15.73;5.85;;;;;;;24.09;35.22;97938.13;4971386;28;20030;-30
2021/12/19 06:49:26;;;;;;;7.95;5.35;;;;;;;24.10;35.22;97934.66;4990107;28;20030;-33
2021/12/19 06:51:51;;;;;;;8.43;5.50;;;;;;;24.07;35.34;97930.34;4970217;28;20117;-32
2021/12/19 06:54:17;;;;;;;9.57;5.60;;;;;;;24.10;35.33;97937.28;4989074;28;20066;-28
2021/12/19 06:56:42;;;;;;;9.13;5.90;;;;;;;24.09;35.25;97938.13;4971530;28;20131;-31
2021/12/19 06:59:08;;;;;;;9.98;5.55;;;;;;;24.09;35.30;97931.16;4990869;28;20071;-32
2021/12/19 07:01:34;;;;;;;8.73;5.30;;;;;;;24.10;35.12;97934.66;4989482;28;20396;-30
2021/12/19 07:04:00;;;;;;;7.88;5.13;;;;;;;24.09;35.13;97939.00;4953173;28;20223;-32
2021/12/19 07:06:25;;;;;;;9.70;5.07;;;;;;;24.10;35.30;97930.28;4988445;28;20030;-29
2021/12/19 07:08:51;;;;;;;8.13;4.93;;;;;;;24.10;35.29;97935.50;4990673;28;20076;-27
2021/12/19 07:11:16;;;;;;;8.32;5.18;;;;;;;24.10;35.13;97940.75;4954852;28;20018;-28
2021/12/19 07:13:42;;;;;;;8.07;5.07;;;;;;;24.11;35.24;97936.38;4956089;28;20029;-27
2021/12/19 07:16:07;;;;;;;7.95;5.03;;;;;;;24.12;35.27;97943.31;4988388;28;20064;-32
2021/12/19 07:18:33;;;;;;;8.43;4.90;;;;;;;24.14;35.14;97936.31;4971864;28;20030;-30
2021/12/19 07:20:58;;;;;;;9.85;4.80;;;;;;;24.14;35.26;97936.31;4969094;28;20039;-28
2021/12/19 07:23:24;;;;;;;7.82;4.95;;;;;;;24.15;35.31;97938.00;4983343;28;20041;-31
2021/12/19 07:25:49;;;;;;;8.63;4.75;;;;;;;24.15;35.25;97940.63;4981873;28;20030;-28
2021/12/19 07:28:15;;;;;;;7.82;4.70;;;;;;;24.16;35.19;97944.09;4980168;28;20030;-30
2021/12/19 07:30:40;;;;;;;7.90;5.28;;;;;;;24.17;35.01;97946.66;4984985;28;21222;-32
2021/12/19 07:33:07;;;;;;;10.85;4.97;;;;;;;24.17;35.13;97948.44;4983435;28;20610;-30
2021/12/19 07:35:36;;;;;;;7.82;4.78;;;;;;;24.17;35.03;97941.44;4956670;28;20634;-27
2021/12/19 07:38:03;;;;;;;8.27;5.00;;;;;;;24.19;35.01;97944.00;4984204;28;20425;-28
2021/12/19 07:40:35;;;;;;;8.45;4.60;;;;;;;24.19;35.19;97938.78;4981376;28;20080;-31
2021/12/19 07:43:03;;;;;;;7.22;4.53;;;;;;;24.21;35.07;97947.47;4984020;28;20075;-29
2021/12/19 07:45:28;;;;;;;9.35;5.10;;;;;;;24.20;34.98;97930.88;4980492;28;20112;-30
2021/12/19 07:47:54;;;;;;;8.02;4.68;;;;;;;24.22;35.04;97922.97;4981960;28;20030;-25
2021/12/19 07:50:20;;;;;;;6.95;4.68;;;;;;;24.22;35.01;97923.81;4983567;28;20149;-27
2021/12/19 07:52:45;;;;;;;7.97;4.88;;;;;;;24.23;35.11;97936.03;4981801;28;20029;-29
2021/12/19 07:55:12;;;;;;;8.10;4.43;;;;;;;24.23;34.97;97935.16;4982260;28;20155;-28
2021/12/19 07:57:37;;;;;;;7.93;4.78;;;;;;;24.25;35.17;97949.09;4967666;28;20492;-29
2021/12/19 08:00:07;;;;;;;5.78;4.20;;;;;;;24.25;35.12;97955.16;4982231;28;20492;-27
2021/12/19 08:02:32;;;;;;;7.00;4.53;;;;;;;24.25;34.91;97938.63;4962622;28;20034;-30
2021/12/19 08:04:58;;;;;;;9.23;4.70;;;;;;;24.26;35.15;97945.56;4981324;28;20434;-26
2021/12/19 08:07:24;;;;;;;9.63;4.38;;;;;;;24.27;35.18;97940.28;4983763;28;20025;-30
2021/12/19 08:12:33;;;;;;;14.70;3.75;;;;;;;24.24;34.82;97937.75;4969715;28;20038;-26
2021/12/19 08:14:59;;;;;;;22.00;4.07;;;;;;;24.23;34.61;97922.94;4984628;28;20564;-29
2021/12/19 08:17:24;;;;;;;20.25;4.38;;;;;;;24.21;34.68;97927.34;4986283;28;20026;-28
2021/12/19 08:19:50;;;;;;;21.67;3.75;;;;;;;24.21;34.89;97922.09;4984995;28;20026;-28
2021/12/19 08:22:15;;;;;;;28.25;5.40;;;;;;;24.19;34.81;97934.41;4980601;28;20412;-30
2021/12/19 08:24:41;;;;;;;31.75;6.10;;;;;;;24.20;33.99;97927.38;4965589;28;20041;-28
2021/12/19 08:27:07;;;;;;;23.70;6.82;;;;;;;24.16;33.94;97924.00;4985747;28;20033;-30
2021/12/19 08:29:32;;;;;;;27.17;5.90;;;;;;;24.14;33.00;97915.34;4987128;28;20026;-28
2021/12/19 08:31:58;;;;;;;31.02;5.80;;;;;;;24.12;33.23;97911.91;4985433;28;20034;-30
2021/12/19 08:34:23;;;;;;;36.03;7.15;;;;;;;24.11;33.55;97912.81;4970669;28;20041;-29
2021/12/19 08:36:49;;;;;;;23.95;6.45;;;;;;;24.11;34.06;97915.41;4963338;28;20095;-31
2021/12/19 08:39:15;;;;;;;17.55;6.13;;;;;;;24.12;34.29;97911.91;4981169;28;20112;-29
2021/12/19 08:41:40;;;;;;;21.42;5.90;;;;;;;24.13;34.47;97914.47;4981746;28;20036;-31
2021/12/19 08:44:06;;;;;;;32.28;7.07;;;;;;;24.13;34.73;97911.00;4966075;28;20068;-27
2021/12/19 08:46:35;;;;;;;21.75;6.65;;;;;;;24.16;34.70;97907.41;4981427;28;20117;-28
2021/12/19 08:49:02;;;;;;;18.90;5.95;;;;;;;24.18;34.80;97921.34;4975182;28;20092;-29
2021/12/19 08:51:28;;;;;;;19.75;5.13;;;;;;;24.18;34.90;97930.03;4983489;28;20117;-26
2021/12/19 08:53:53;;;;;;;19.15;5.85;;;;;;;24.18;34.93;97919.56;4975790;28;20032;-32
2021/12/19 08:56:19;;;;;;;19.60;5.88;;;;;;;24.20;35.17;97909.91;4956093;28;20070;-31
2021/12/19 08:58:44;;;;;;;26.55;5.95;;;;;;;24.22;34.92;97902.84;4986925;28;20143;-30
2021/12/19 09:01:09;;;;;;;18.20;6.28;;;;;;;24.22;35.18;97902.84;4988559;28;20475;-29
2021/12/19 09:03:35;;;;;;;22.27;6.00;;;;;;;24.22;35.15;97895.00;4980477;28;20025;-27
2021/12/19 09:06:01;;;;;;;16.83;5.47;;;;;;;24.24;35.31;97895.84;4981664;28;20363;-27
2021/12/19 09:08:26;;;;;;;16.30;6.25;;;;;;;24.25;35.08;97901.94;4982844;28;21231;-27
2021/12/19 09:10:52;;;;;;;15.70;5.80;;;;;;;24.24;35.06;97893.22;4982561;28;20563;-31
2021/12/19 09:13:17;;;;;;;15.30;5.50;;;;;;;24.27;35.03;97887.91;4979220;28;20033;-27
2021/12/19 09:15:43;;;;;;;16.98;5.10;;;;;;;24.27;35.22;97889.66;4977312;28;20675;-31
2021/12/19 09:18:08;;;;;;;14.57;5.88;;;;;;;24.29;35.15;97898.31;4980781;28;20037;-31
2021/12/19 09:20:34;;;;;;;13.93;5.50;;;;;;;24.30;35.28;97896.56;4981306;28;20027;-32
2021/12/19 09:22:59;;;;;;;18.48;5.78;;;;;;;24.30;35.16;97888.69;4984888;28;20068;-27
2021/12/19 09:25:24;;;;;;;20.08;4.80;;;;;;;24.31;35.16;97885.16;4983879;28;20022;-29
2021/12/19 09:27:50;;;;;;;21.17;4.95;;;;;;;24.31;35.16;97890.41;4983671;28;20030;-28
2021/12/19 09:30:15;;;;;;;19.63;5.47;;;;;;;24.32;35.25;97889.53;4985085;28;20731;-30
2021/12/19 09:32:41;;;;;;;16.70;5.20;;;;;;;24.32;35.11;97889.53;4984774;28;20101;-26
2021/12/19 09:35:07;;;;;;;17.48;4.95;;;;;;;24.32;35.27;97892.16;4966302;28;20063;-28
2021/12/19 09:37:35;;;;;;;18.20;5.13;;;;;;;24.34;35.37;97898.19;4983541;28;20282;-29
2021/12/19 09:40:03;;;;;;;14.40;4.90;;;;;;;24.34;35.20;97900.81;4967740;28;20049;-26
2021/12/19 09:42:33;;;;;;;15.30;5.00;;;;;;;24.34;35.17;97896.44;4966642;28;20034;-27
2021/12/19 09:45:00;;;;;;;15.38;3.92;;;;;;;24.35;35.00;97897.28;4983658;28;20032;-28
2021/12/19 09:47:25;;;;;;;13.00;3.90;;;;;;;24.36;34.68;97889.38;4949541;28;20492;-27
2021/12/19 09:49:51;;;;;;;10.95;4.22;;;;;;;24.35;34.33;97894.66;4965282;28;20093;-27
2021/12/19 09:52:16;;;;;;;9.80;4.30;;;;;;;24.36;34.06;97888.50;4949028;28;20029;-30
2021/12/19 09:54:41;;;;;;;11.38;3.70;;;;;;;24.35;34.13;97886.78;4980822;28;20121;-28
2021/12/19 09:57:07;;;;;;;18.45;4.35;;;;;;;24.37;34.33;97874.53;4966346;28;20022;-24
2021/12/19 09:59:32;;;;;;;23.42;5.00;;;;;;;24.37;34.37;97869.28;4983082;28;20030;-28
2021/12/19 10:01:58;;;;;;;12.63;4.63;;;;;;;24.39;34.60;97856.97;4956539;28;20037;-29
2021/12/19 10:04:40;;;;;;;11.63;4.45;;;;;;;24.40;34.76;97853.44;4985014;28;20030;-29
2021/12/19 10:07:17;;;;;;;15.82;4.03;;;;;;;24.42;34.75;97846.41;4968896;28;20136;-28
2021/12/19 10:10:13;;;;;;;15.95;4.47;;;;;;;24.43;34.68;97845.50;4970067;28;20096;-27
2021/12/19 10:15:13;;;;;;;16.73;4.10;;;;;;;24.43;34.43;97840.25;4984291;28;20359;-27
2021/12/19 10:17:39;;;;;;;13.80;4.07;;;;;;;24.43;34.62;97839.41;4966081;28;20030;-27
2021/12/19 10:20:15;;;;;;;15.32;4.40;;;;;;;24.42;34.60;97838.56;4983768;28;20447;-27
2021/12/19 10:22:45;;;;;;;18.05;4.25;;;;;;;24.44;34.67;97841.97;4984209;28;20030;-29
2021/12/19 10:25:11;;;;;;;13.10;4.05;;;;;;;24.45;34.84;97841.09;4987128;28;20661;-27
2021/12/19 10:27:41;;;;;;;8.57;3.88;;;;;;;24.46;34.82;97834.94;4987476;28;20030;-29
2021/12/19 10:30:09;;;;;;;11.25;3.83;;;;;;;24.48;34.91;97835.72;4985576;28;20042;-27
2021/12/19 10:32:35;;;;;;;10.63;4.10;;;;;;;24.50;35.13;97827.81;4985565;28;20080;-27
2021/12/19 10:35:14;;;;;;;13.23;3.95;;;;;;;24.51;35.12;97833.03;4952127;28;20504;-26
2021/12/19 10:37:39;;;;;;;13.00;4.20;;;;;;;24.52;34.94;97833.91;4982670;28;20030;-27
2021/12/19 10:40:06;;;;;;;11.93;3.92;;;;;;;24.53;34.95;97818.09;4983937;28;20057;-29
2021/12/19 10:42:36;;;;;;;19.48;5.60;;;;;;;24.56;34.76;97811.91;4967728;28;20026;-27
2021/12/19 10:48:14;;;;;;;20.08;4.93;;;;;;;24.57;34.86;97797.91;4953828;28;20054;-30
2021/12/19 10:51:00;;;;;;;18.45;5.13;;;;;;;24.58;34.89;97794.38;4984121;28;20615;-31
2021/12/19 10:53:32;;;;;;;152.70;16.15;;;;;;;24.57;34.49;97797.03;4979801;28;20080;-29
2021/12/19 10:55:57;;;;;;;139.55;16.25;;;;;;;24.53;33.52;97791.91;4981708;28;20041;-29
2021/12/19 10:58:36;;;;;;;51.55;7.22;;;;;;;24.53;33.55;97788.44;4981950;28;20148;-30
2021/12/19 11:01:12;;;;;;;42.08;6.18;;;;;;;24.49;32.77;97784.19;4981404;28;20083;-25
2021/12/19 11:03:42;;;;;;;24.35;5.65;;;;;;;24.47;33.11;97784.25;4963925;28;20022;-27
2021/12/19 11:06:35;;;;;;;22.60;6.00;;;;;;;24.44;33.41;97773.84;4980729;28;20037;-28
2021/12/19 11:09:28;;;;;;;35.70;6.72;;;;;;;24.43;33.65;97768.66;4982654;28;20030;-28
2021/12/19 11:11:54;;;;;;;30.33;6.35;;;;;;;24.42;33.80;97764.31;4969592;28;20068;-29
2021/12/19 11:14:24;;;;;;;26.25;6.40;;;;;;;24.40;34.12;97760.00;4985765;28;20420;-30
2021/12/19 11:16:52;;;;;;;28.73;5.50;;;;;;;24.41;34.13;97758.25;4983663;28;20121;-28
2021/12/19 11:19:17;;;;;;;37.30;8.70;;;;;;;24.40;34.35;97749.53;4967108;28;20110;-27
2021/12/19 11:21:43;;;;;;;32.08;8.57;;;;;;;24.41;34.22;97739.91;4967993;28;20045;-30
2021/12/19 11:24:10;;;;;;;27.30;8.45;;;;;;;24.40;34.39;97725.94;4981047;28;20025;-28
2021/12/19 11:26:37;;;;;;;43.88;8.68;;;;;;;24.40;34.64;97725.06;4963813;28;20030;-31
2021/12/19 11:29:03;;;;;;;36.95;9.75;;;;;;;24.41;34.67;97724.19;4984698;28;20026;-28
2021/12/19 11:31:31;;;;;;;33.92;8.98;;;;;;;24.43;34.79;97719.75;4971919;28;20409;-29
2021/12/19 11:34:07;;;;;;;29.63;9.40;;;;;;;24.45;34.96;97715.31;4974204;28;20029;-29
2021/12/19 11:36:36;;;;;;;52.20;10.63;;;;;;;24.47;34.88;97708.25;4989467;28;20077;-28
2021/12/19 11:39:02;;;;;;;36.45;9.43;;;;;;;24.49;34.73;97706.44;4960286;28;20040;-29
2021/12/19 11:41:27;;;;;;;32.20;9.23;;;;;;;24.51;34.86;97703.75;4988771;28;20030;-29
2021/12/19 11:43:55;;;;;;;39.00;8.13;;;;;;;24.55;34.88;97707.16;4970753;28;20496;-29
2021/12/19 11:46:41;;;;;;;36.97;8.93;;;;;;;24.57;34.82;97702.72;4968989;28;20121;-29
2021/12/19 11:49:11;;;;;;;38.78;8.82;;;;;;;24.58;35.16;97700.03;4971846;28;20029;-29
2021/12/19 11:51:36;;;;;;;33.53;8.90;;;;;;;24.60;35.22;97702.63;4973552;28;20497;-30
2021/12/19 11:54:11;;;;;;;36.38;8.90;;;;;;;24.61;35.37;97693.84;4968761;28;20053;-26
2021/12/19 11:56:37;;;;;;;32.95;8.68;;;;;;;24.62;35.39;97695.53;4979010;28;20597;-30
2021/12/19 11:59:02;;;;;;;28.77;8.93;;;;;;;24.63;35.35;97692.88;4971683;28;20204;-29
2021/12/19 12:01:29;;;;;;;30.98;8.27;;;;;;;24.64;35.32;97688.50;4955032;28;20046;-28
2021/12/19 12:04:04;;;;;;;32.22;8.52;;;;;;;24.67;35.35;97685.75;4970220;28;20680;-29
2021/12/19 12:06:31;;;;;;;29.98;8.68;;;;;;;24.69;35.49;97676.09;4978523;28;20322;-29
2021/12/19 12:09:27;;;;;;;28.27;8.85;;;;;;;24.69;35.53;97665.59;4979881;28;20038;-27
2021/12/19 12:11:58;;;;;;;32.15;8.60;;;;;;;24.69;35.31;97655.13;4987508;28;20038;-29
2021/12/19 12:14:30;;;;;;;27.50;8.50;;;;;;;24.71;35.29;97657.69;4976458;28;20034;-29
2021/12/19 12:17:05;;;;;;;31.65;8.85;;;;;;;24.71;35.44;97647.22;4983911;28;20095;-30
2021/12/19 12:19:52;;;;;;;27.88;8.65;;;;;;;24.73;35.50;97650.63;4956565;28;20034;-31
2021/12/19 12:25:16;;;;;;;30.13;7.95;;;;;;;24.74;35.62;97634.84;4986799;28;20113;-28
2021/12/19 12:27:45;;;;;;;35.03;9.20;;;;;;;24.76;35.67;97634.78;4989744;28;20427;-30
2021/12/19 12:30:16;;;;;;;33.22;8.52;;;;;;;24.78;35.48;97627.72;4984932;28;20108;-29
2021/12/19 12:32:42;;;;;;;21.85;7.80;;;;;;;24.78;35.54;97625.97;4970811;28;20045;-32
2021/12/19 12:35:11;;;;;;;30.20;7.07;;;;;;;24.78;35.34;97612.84;4970357;28;20070;-28
2021/12/19 12:37:36;;;;;;;38.00;19.95;;;;;;;24.73;30.62;97609.53;4980605;28;20493;-28
2021/12/19 12:40:18;;;;;;;67.60;50.63;;;;;;;24.62;29.78;97603.81;4988478;28;20056;-28